sensor_id;sensor_type;location;lat;lon;timestamp;temperature;humidity
16347;DHT22;8283;48.504;13.734;2024-02-21T00:00:22;9.40;81.50
16347;DHT22;8283;48.504;13.734;2024-02-21T00:02:41;9.30;81.30
16347;DHT22;8283;48.504;13.734;2024-02-21T00:05:01;9.30;81.40
16347;DHT22;8283;48.504;13.734;2024-02-21T00:07:20;9.30;81.50
16347;DHT22;8283;48.504;13.734;2024-02-21T00:09:40;9.30;81.50
16347;DHT22;8283;48.504;13.734;2024-02-21T00:11:59;9.30;81.40
16347;DHT22;8283;48.504;13.734;2024-02-21T00:14:20;9.30;81.50
16347;DHT22;8283;48.504;13.734;2024-02-21T00:16:39;9.20;81.40
16347;DHT22;8283;48.504;13.734;2024-02-21T00:19:00;9.20;81.40
16347;DHT22;8283;48.504;13.734;2024-02-21T00:21:20;9.20;81.40
16347;DHT22;8283;48.504;13.734;2024-02-21T00:23:39;9.20;81.60
16347;DHT22;8283;48.504;13.734;2024-02-21T00:25:58;9.20;81.60
16347;DHT22;8283;48.504;13.734;2024-02-21T00:28:17;9.10;81.40
16347;DHT22;8283;48.504;13.734;2024-02-21T00:30:37;9.10;81.30
16347;DHT22;8283;48.504;13.734;2024-02-21T00:32:57;9.10;81.40
16347;DHT22;8283;48.504;13.734;2024-02-21T00:35:17;10.10;82.00
16347;DHT22;8283;48.504;13.734;2024-02-21T00:37:36;9.00;81.40
16347;DHT22;8283;48.504;13.734;2024-02-21T00:39:55;9.00;81.40
16347;DHT22;8283;48.504;13.734;2024-02-21T00:42:14;9.00;81.40
16347;DHT22;8283;48.504;13.734;2024-02-21T00:44:33;9.00;81.50
16347;DHT22;8283;48.504;13.734;2024-02-21T00:46:53;10.10;82.10
16347;DHT22;8283;48.504;13.734;2024-02-21T00:49:12;8.90;81.50
16347;DHT22;8283;48.504;13.734;2024-02-21T00:51:32;8.90;81.60
16347;DHT22;8283;48.504;13.734;2024-02-21T00:53:51;8.90;81.70
16347;DHT22;8283;48.504;13.734;2024-02-21T00:56:10;8.90;81.70
16347;DHT22;8283;48.504;13.734;2024-02-21T00:58:30;8.90;81.70
16347;DHT22;8283;48.504;13.734;2024-02-21T01:00:49;8.90;81.80
16347;DHT22;8283;48.504;13.734;2024-02-21T01:03:08;8.90;81.90
16347;DHT22;8283;48.504;13.734;2024-02-21T01:05:28;9.00;81.90
16347;DHT22;8283;48.504;13.734;2024-02-21T01:07:48;9.00;82.00
16347;DHT22;8283;48.504;13.734;2024-02-21T01:10:08;9.00;81.90
16347;DHT22;8283;48.504;13.734;2024-02-21T01:12:27;9.00;82.00
16347;DHT22;8283;48.504;13.734;2024-02-21T01:14:47;9.00;82.00
16347;DHT22;8283;48.504;13.734;2024-02-21T01:17:06;9.00;82.00
16347;DHT22;8283;48.504;13.734;2024-02-21T01:19:25;9.00;82.00
16347;DHT22;8283;48.504;13.734;2024-02-21T01:21:45;9.00;82.00
16347;DHT22;8283;48.504;13.734;2024-02-21T01:24:05;9.00;81.90
16347;DHT22;8283;48.504;13.734;2024-02-21T01:26:24;9.00;81.80
16347;DHT22;8283;48.504;13.734;2024-02-21T01:28:43;9.00;82.70
16347;DHT22;8283;48.504;13.734;2024-02-21T01:31:02;9.00;82.00
16347;DHT22;8283;48.504;13.734;2024-02-21T01:33:22;9.00;82.10
16347;DHT22;8283;48.504;13.734;2024-02-21T01:35:42;9.00;82.10
16347;DHT22;8283;48.504;13.734;2024-02-21T01:38:01;9.00;82.20
16347;DHT22;8283;48.504;13.734;2024-02-21T01:40:21;9.00;82.30
16347;DHT22;8283;48.504;13.734;2024-02-21T01:42:40;9.00;82.30
16347;DHT22;8283;48.504;13.734;2024-02-21T01:45:00;9.00;82.30
16347;DHT22;8283;48.504;13.734;2024-02-21T01:47:19;9.00;82.30
16347;DHT22;8283;48.504;13.734;2024-02-21T01:49:42;9.00;82.30
16347;DHT22;8283;48.504;13.734;2024-02-21T01:52:02;9.00;82.40
16347;DHT22;8283;48.504;13.734;2024-02-21T01:54:22;9.00;82.30
16347;DHT22;8283;48.504;13.734;2024-02-21T01:56:42;9.00;82.30
16347;DHT22;8283;48.504;13.734;2024-02-21T01:59:01;9.00;82.30
16347;DHT22;8283;48.504;13.734;2024-02-21T02:01:21;9.00;82.20
16347;DHT22;8283;48.504;13.734;2024-02-21T02:03:40;9.00;82.20
16347;DHT22;8283;48.504;13.734;2024-02-21T02:06:00;9.00;82.20
16347;DHT22;8283;48.504;13.734;2024-02-21T02:08:20;9.00;82.10
16347;DHT22;8283;48.504;13.734;2024-02-21T02:10:41;9.00;82.00
16347;DHT22;8283;48.504;13.734;2024-02-21T02:13:00;9.00;82.00
16347;DHT22;8283;48.504;13.734;2024-02-21T02:15:20;9.00;82.00
16347;DHT22;8283;48.504;13.734;2024-02-21T02:17:39;9.00;82.00
16347;DHT22;8283;48.504;13.734;2024-02-21T02:19:59;8.90;81.90
16347;DHT22;8283;48.504;13.734;2024-02-21T02:22:23;8.90;82.00
16347;DHT22;8283;48.504;13.734;2024-02-21T02:24:43;8.90;82.10
16347;DHT22;8283;48.504;13.734;2024-02-21T02:27:03;8.90;82.00
16347;DHT22;8283;48.504;13.734;2024-02-21T02:29:22;8.90;82.00
16347;DHT22;8283;48.504;13.734;2024-02-21T02:31:42;8.90;82.10
16347;DHT22;8283;48.504;13.734;2024-02-21T02:34:01;8.90;82.70
16347;DHT22;8283;48.504;13.734;2024-02-21T02:36:21;9.00;82.10
16347;DHT22;8283;48.504;13.734;2024-02-21T02:38:40;8.90;81.90
16347;DHT22;8283;48.504;13.734;2024-02-21T02:41:01;8.90;81.90
16347;DHT22;8283;48.504;13.734;2024-02-21T02:43:20;8.90;81.90
16347;DHT22;8283;48.504;13.734;2024-02-21T02:45:39;8.90;81.90
16347;DHT22;8283;48.504;13.734;2024-02-21T02:47:59;8.90;82.00
16347;DHT22;8283;48.504;13.734;2024-02-21T02:50:19;8.90;82.00
16347;DHT22;8283;48.504;13.734;2024-02-21T02:52:38;8.90;81.90
16347;DHT22;8283;48.504;13.734;2024-02-21T02:54:58;8.90;82.00
16347;DHT22;8283;48.504;13.734;2024-02-21T02:57:18;8.80;82.00
16347;DHT22;8283;48.504;13.734;2024-02-21T02:59:37;8.90;82.10
16347;DHT22;8283;48.504;13.734;2024-02-21T03:01:57;8.90;82.10
16347;DHT22;8283;48.504;13.734;2024-02-21T03:04:16;8.90;82.10
16347;DHT22;8283;48.504;13.734;2024-02-21T03:06:35;8.90;82.10
16347;DHT22;8283;48.504;13.734;2024-02-21T03:08:54;8.90;82.20
16347;DHT22;8283;48.504;13.734;2024-02-21T03:11:14;9.40;82.50
16347;DHT22;8283;48.504;13.734;2024-02-21T03:13:34;8.90;82.10
16347;DHT22;8283;48.504;13.734;2024-02-21T03:15:53;8.90;82.10
16347;DHT22;8283;48.504;13.734;2024-02-21T03:18:13;8.80;81.90
16347;DHT22;8283;48.504;13.734;2024-02-21T03:20:32;8.80;81.90
16347;DHT22;8283;48.504;13.734;2024-02-21T03:22:52;8.80;81.90
16347;DHT22;8283;48.504;13.734;2024-02-21T03:25:12;8.80;81.90
16347;DHT22;8283;48.504;13.734;2024-02-21T03:27:33;9.30;82.40
16347;DHT22;8283;48.504;13.734;2024-02-21T03:29:53;8.70;82.00
16347;DHT22;8283;48.504;13.734;2024-02-21T03:32:12;8.70;82.10
16347;DHT22;8283;48.504;13.734;2024-02-21T03:34:31;8.70;82.10
16347;DHT22;8283;48.504;13.734;2024-02-21T03:36:51;8.70;82.00
16347;DHT22;8283;48.504;13.734;2024-02-21T03:39:10;8.70;82.00
16347;DHT22;8283;48.504;13.734;2024-02-21T03:41:30;8.70;81.90
16347;DHT22;8283;48.504;13.734;2024-02-21T03:43:49;8.60;81.90
16347;DHT22;8283;48.504;13.734;2024-02-21T03:46:08;9.60;82.60
16347;DHT22;8283;48.504;13.734;2024-02-21T03:48:28;8.60;82.10
16347;DHT22;8283;48.504;13.734;2024-02-21T03:50:47;8.60;82.20
16347;DHT22;8283;48.504;13.734;2024-02-21T03:53:07;8.60;82.20
16347;DHT22;8283;48.504;13.734;2024-02-21T03:55:26;8.60;82.30
16347;DHT22;8283;48.504;13.734;2024-02-21T03:57:46;8.50;82.30
16347;DHT22;8283;48.504;13.734;2024-02-21T04:00:06;7.60;81.80
16347;DHT22;8283;48.504;13.734;2024-02-21T04:02:29;8.60;82.40
16347;DHT22;8283;48.504;13.734;2024-02-21T04:04:49;8.60;82.40
16347;DHT22;8283;48.504;13.734;2024-02-21T04:07:08;8.60;82.50
16347;DHT22;8283;48.504;13.734;2024-02-21T04:09:27;8.60;82.70
16347;DHT22;8283;48.504;13.734;2024-02-21T04:11:47;8.60;82.70
16347;DHT22;8283;48.504;13.734;2024-02-21T04:14:06;8.50;82.80
16347;DHT22;8283;48.504;13.734;2024-02-21T04:16:26;8.60;82.90
16347;DHT22;8283;48.504;13.734;2024-02-21T04:18:45;8.60;82.70
16347;DHT22;8283;48.504;13.734;2024-02-21T04:21:05;8.60;82.80
16347;DHT22;8283;48.504;13.734;2024-02-21T04:23:24;8.60;82.80
16347;DHT22;8283;48.504;13.734;2024-02-21T04:25:44;8.60;82.70
16347;DHT22;8283;48.504;13.734;2024-02-21T04:28:03;8.60;83.50
16347;DHT22;8283;48.504;13.734;2024-02-21T04:30:23;8.60;82.80
16347;DHT22;8283;48.504;13.734;2024-02-21T04:32:42;8.60;82.80
16347;DHT22;8283;48.504;13.734;2024-02-21T04:35:02;8.60;82.80
16347;DHT22;8283;48.504;13.734;2024-02-21T04:37:21;8.60;82.90
16347;DHT22;8283;48.504;13.734;2024-02-21T04:39:40;8.60;82.90
16347;DHT22;8283;48.504;13.734;2024-02-21T04:42:00;8.60;82.90
16347;DHT22;8283;48.504;13.734;2024-02-21T04:44:19;8.60;82.90
16347;DHT22;8283;48.504;13.734;2024-02-21T04:46:44;8.70;83.70
16347;DHT22;8283;48.504;13.734;2024-02-21T04:49:03;8.70;83.10
16347;DHT22;8283;48.504;13.734;2024-02-21T04:51:22;8.70;83.00
16347;DHT22;8283;48.504;13.734;2024-02-21T04:53:42;8.60;82.90
16347;DHT22;8283;48.504;13.734;2024-02-21T04:56:01;8.70;82.90
16347;DHT22;8283;48.504;13.734;2024-02-21T04:58:20;8.70;82.80
16347;DHT22;8283;48.504;13.734;2024-02-21T05:00:40;9.70;83.40
16347;DHT22;8283;48.504;13.734;2024-02-21T05:03:00;8.70;82.70
16347;DHT22;8283;48.504;13.734;2024-02-21T05:05:19;8.70;82.60
16347;DHT22;8283;48.504;13.734;2024-02-21T05:07:38;8.60;82.60
16347;DHT22;8283;48.504;13.734;2024-02-21T05:09:58;8.60;82.40
16347;DHT22;8283;48.504;13.734;2024-02-21T05:12:17;8.60;82.30
16347;DHT22;8283;48.504;13.734;2024-02-21T05:14:37;8.50;82.20
16347;DHT22;8283;48.504;13.734;2024-02-21T05:16:56;8.50;82.20
16347;DHT22;8283;48.504;13.734;2024-02-21T05:19:15;8.50;82.20
16347;DHT22;8283;48.504;13.734;2024-02-21T05:21:35;8.50;82.20
16347;DHT22;8283;48.504;13.734;2024-02-21T05:23:56;8.50;82.00
16347;DHT22;8283;48.504;13.734;2024-02-21T05:26:25;8.40;82.00
16347;DHT22;8283;48.504;13.734;2024-02-21T05:28:45;8.40;82.20
16347;DHT22;8283;48.504;13.734;2024-02-21T05:31:04;8.30;81.90
16347;DHT22;8283;48.504;13.734;2024-02-21T05:33:24;8.30;81.90
16347;DHT22;8283;48.504;13.734;2024-02-21T05:35:44;8.30;82.10
16347;DHT22;8283;48.504;13.734;2024-02-21T05:38:03;8.30;82.10
16347;DHT22;8283;48.504;13.734;2024-02-21T05:40:30;8.30;82.10
16347;DHT22;8283;48.504;13.734;2024-02-21T05:42:50;8.30;82.30
16347;DHT22;8283;48.504;13.734;2024-02-21T05:45:11;8.30;82.30
16347;DHT22;8283;48.504;13.734;2024-02-21T05:47:30;8.30;82.40
16347;DHT22;8283;48.504;13.734;2024-02-21T05:49:50;8.30;82.40
16347;DHT22;8283;48.504;13.734;2024-02-21T05:52:12;8.30;82.50
16347;DHT22;8283;48.504;13.734;2024-02-21T05:54:31;8.30;82.60
16347;DHT22;8283;48.504;13.734;2024-02-21T05:56:51;8.30;82.70
16347;DHT22;8283;48.504;13.734;2024-02-21T05:59:12;8.30;82.70
16347;DHT22;8283;48.504;13.734;2024-02-21T06:01:32;8.30;82.70
16347;DHT22;8283;48.504;13.734;2024-02-21T06:03:51;8.30;82.60
16347;DHT22;8283;48.504;13.734;2024-02-21T06:06:11;8.30;82.50
16347;DHT22;8283;48.504;13.734;2024-02-21T06:08:31;8.30;82.50
16347;DHT22;8283;48.504;13.734;2024-02-21T06:10:50;8.70;82.80
16347;DHT22;8283;48.504;13.734;2024-02-21T06:13:14;8.30;82.60
16347;DHT22;8283;48.504;13.734;2024-02-21T06:15:33;8.30;82.60
16347;DHT22;8283;48.504;13.734;2024-02-21T06:17:53;8.30;82.50
16347;DHT22;8283;48.504;13.734;2024-02-21T06:20:12;8.30;82.50
16347;DHT22;8283;48.504;13.734;2024-02-21T06:22:31;8.30;82.50
16347;DHT22;8283;48.504;13.734;2024-02-21T06:24:50;8.30;82.50
16347;DHT22;8283;48.504;13.734;2024-02-21T06:27:11;8.30;82.60
16347;DHT22;8283;48.504;13.734;2024-02-21T06:29:30;8.30;82.70
16347;DHT22;8283;48.504;13.734;2024-02-21T06:31:50;8.30;82.70
16347;DHT22;8283;48.504;13.734;2024-02-21T06:34:09;8.30;82.80
16347;DHT22;8283;48.504;13.734;2024-02-21T06:36:28;8.30;82.80
16347;DHT22;8283;48.504;13.734;2024-02-21T06:38:48;8.30;82.80
16347;DHT22;8283;48.504;13.734;2024-02-21T06:41:17;8.40;82.90
16347;DHT22;8283;48.504;13.734;2024-02-21T06:43:38;8.40;83.10
16347;DHT22;8283;48.504;13.734;2024-02-21T06:45:57;8.40;82.90
16347;DHT22;8283;48.504;13.734;2024-02-21T06:48:18;8.40;83.00
16347;DHT22;8283;48.504;13.734;2024-02-21T06:50:37;8.50;83.20
16347;DHT22;8283;48.504;13.734;2024-02-21T06:52:56;7.80;82.70
16347;DHT22;8283;48.504;13.734;2024-02-21T06:55:16;8.50;83.30
16347;DHT22;8283;48.504;13.734;2024-02-21T06:57:36;8.60;83.50
16347;DHT22;8283;48.504;13.734;2024-02-21T06:59:55;8.60;83.60
16347;DHT22;8283;48.504;13.734;2024-02-21T07:02:15;8.60;83.70
16347;DHT22;8283;48.504;13.734;2024-02-21T07:04:34;8.70;83.90
16347;DHT22;8283;48.504;13.734;2024-02-21T07:06:54;8.80;84.10
16347;DHT22;8283;48.504;13.734;2024-02-21T07:09:13;8.80;84.20
16347;DHT22;8283;48.504;13.734;2024-02-21T07:11:32;8.90;84.20
16347;DHT22;8283;48.504;13.734;2024-02-21T07:13:52;9.00;84.40
16347;DHT22;8283;48.504;13.734;2024-02-21T07:16:11;9.10;84.50
16347;DHT22;8283;48.504;13.734;2024-02-21T07:18:30;9.20;84.50
16347;DHT22;8283;48.504;13.734;2024-02-21T07:20:50;9.20;84.50
16347;DHT22;8283;48.504;13.734;2024-02-21T07:23:09;9.30;84.50
16347;DHT22;8283;48.504;13.734;2024-02-21T07:25:29;9.40;84.40
16347;DHT22;8283;48.504;13.734;2024-02-21T07:27:48;9.50;84.30
16347;DHT22;8283;48.504;13.734;2024-02-21T07:30:08;9.50;84.20
16347;DHT22;8283;48.504;13.734;2024-02-21T07:32:27;9.60;84.20
16347;DHT22;8283;48.504;13.734;2024-02-21T07:34:47;9.60;84.20
16347;DHT22;8283;48.504;13.734;2024-02-21T07:37:06;9.70;84.20
16347;DHT22;8283;48.504;13.734;2024-02-21T07:39:26;9.80;84.10
16347;DHT22;8283;48.504;13.734;2024-02-21T07:41:45;9.90;84.10
16347;DHT22;8283;48.504;13.734;2024-02-21T07:44:07;9.90;83.90
16347;DHT22;8283;48.504;13.734;2024-02-21T07:46:26;10.00;83.60
16347;DHT22;8283;48.504;13.734;2024-02-21T07:48:46;10.00;83.30
16347;DHT22;8283;48.504;13.734;2024-02-21T07:51:06;10.00;83.20
16347;DHT22;8283;48.504;13.734;2024-02-21T07:53:25;10.10;83.30
16347;DHT22;8283;48.504;13.734;2024-02-21T07:55:44;10.20;83.60
16347;DHT22;8283;48.504;13.734;2024-02-21T07:58:04;10.20;83.50
16347;DHT22;8283;48.504;13.734;2024-02-21T08:00:23;10.70;83.90
16347;DHT22;8283;48.504;13.734;2024-02-21T08:02:42;10.30;83.60
16347;DHT22;8283;48.504;13.734;2024-02-21T08:05:03;10.30;83.50
16347;DHT22;8283;48.504;13.734;2024-02-21T08:07:22;10.40;83.40
16347;DHT22;8283;48.504;13.734;2024-02-21T08:09:42;10.40;83.30
16347;DHT22;8283;48.504;13.734;2024-02-21T08:12:01;10.50;83.30
16347;DHT22;8283;48.504;13.734;2024-02-21T08:14:21;10.50;83.30
16347;DHT22;8283;48.504;13.734;2024-02-21T08:16:41;10.60;83.50
16347;DHT22;8283;48.504;13.734;2024-02-21T08:19:00;10.70;83.80
16347;DHT22;8283;48.504;13.734;2024-02-21T08:21:21;10.80;83.90
16347;DHT22;8283;48.504;13.734;2024-02-21T08:23:41;10.90;84.00
16347;DHT22;8283;48.504;13.734;2024-02-21T08:26:03;11.10;83.90
16347;DHT22;8283;48.504;13.734;2024-02-21T08:28:23;11.20;83.40
16347;DHT22;8283;48.504;13.734;2024-02-21T08:30:42;11.30;83.50
16347;DHT22;8283;48.504;13.734;2024-02-21T08:33:07;11.80;83.50
16347;DHT22;8283;48.504;13.734;2024-02-21T08:35:27;11.50;83.00
16347;DHT22;8283;48.504;13.734;2024-02-21T08:37:46;11.60;82.80
16347;DHT22;8283;48.504;13.734;2024-02-21T08:40:07;11.60;82.60
16347;DHT22;8283;48.504;13.734;2024-02-21T08:42:28;11.70;82.60
16347;DHT22;8283;48.504;13.734;2024-02-21T08:44:47;11.80;82.90
16347;DHT22;8283;48.504;13.734;2024-02-21T08:47:06;11.90;83.00
16347;DHT22;8283;48.504;13.734;2024-02-21T08:49:28;12.00;83.40
16347;DHT22;8283;48.504;13.734;2024-02-21T08:51:48;12.10;82.50
16347;DHT22;8283;48.504;13.734;2024-02-21T08:54:07;12.20;82.30
16347;DHT22;8283;48.504;13.734;2024-02-21T08:56:27;12.20;81.90
16347;DHT22;8283;48.504;13.734;2024-02-21T08:58:46;12.30;81.60
16347;DHT22;8283;48.504;13.734;2024-02-21T09:01:06;12.30;81.50
16347;DHT22;8283;48.504;13.734;2024-02-21T09:03:30;12.30;81.40
16347;DHT22;8283;48.504;13.734;2024-02-21T09:05:49;12.30;81.50
16347;DHT22;8283;48.504;13.734;2024-02-21T09:08:09;12.40;81.30
16347;DHT22;8283;48.504;13.734;2024-02-21T09:10:28;12.40;81.10
16347;DHT22;8283;48.504;13.734;2024-02-21T09:12:48;12.40;81.00
16347;DHT22;8283;48.504;13.734;2024-02-21T09:15:08;12.40;80.90
16347;DHT22;8283;48.504;13.734;2024-02-21T09:17:27;12.50;81.00
16347;DHT22;8283;48.504;13.734;2024-02-21T09:19:48;12.50;81.00
16347;DHT22;8283;48.504;13.734;2024-02-21T09:22:07;12.60;80.60
16347;DHT22;8283;48.504;13.734;2024-02-21T09:24:27;12.60;80.50
16347;DHT22;8283;48.504;13.734;2024-02-21T09:26:46;12.70;80.40
16347;DHT22;8283;48.504;13.734;2024-02-21T09:29:06;12.70;80.20
16347;DHT22;8283;48.504;13.734;2024-02-21T09:31:25;12.80;80.10
16347;DHT22;8283;48.504;13.734;2024-02-21T09:33:45;12.80;80.00
16347;DHT22;8283;48.504;13.734;2024-02-21T09:36:05;12.90;79.80
16347;DHT22;8283;48.504;13.734;2024-02-21T09:38:25;12.90;79.60
16347;DHT22;8283;48.504;13.734;2024-02-21T09:40:44;12.90;79.50
16347;DHT22;8283;48.504;13.734;2024-02-21T09:43:04;13.00;79.30
16347;DHT22;8283;48.504;13.734;2024-02-21T09:45:26;12.90;79.00
16347;DHT22;8283;48.504;13.734;2024-02-21T09:48:08;13.00;79.00
16347;DHT22;8283;48.504;13.734;2024-02-21T09:50:33;13.00;77.40
16347;DHT22;8283;48.504;13.734;2024-02-21T09:52:54;13.00;78.80
16347;DHT22;8283;48.504;13.734;2024-02-21T09:55:15;13.10;78.70
16347;DHT22;8283;48.504;13.734;2024-02-21T09:57:34;13.40;78.90
16347;DHT22;8283;48.504;13.734;2024-02-21T09:59:56;13.10;78.70
16347;DHT22;8283;48.504;13.734;2024-02-21T10:02:16;13.20;78.60
16347;DHT22;8283;48.504;13.734;2024-02-21T10:04:35;13.20;79.10
16347;DHT22;8283;48.504;13.734;2024-02-21T10:06:55;13.30;79.10
16347;DHT22;8283;48.504;13.734;2024-02-21T10:09:25;13.40;78.80
16347;DHT22;8283;48.504;13.734;2024-02-21T10:11:46;13.40;77.00
16347;DHT22;8283;48.504;13.734;2024-02-21T10:14:07;13.50;78.60
16347;DHT22;8283;48.504;13.734;2024-02-21T10:16:27;13.50;78.40
16347;DHT22;8283;48.504;13.734;2024-02-21T10:18:46;13.60;78.80
16347;DHT22;8283;48.504;13.734;2024-02-21T10:21:06;13.80;79.20
16347;DHT22;8283;48.504;13.734;2024-02-21T10:23:26;13.90;78.30
16347;DHT22;8283;48.504;13.734;2024-02-21T10:25:45;14.10;78.60
16347;DHT22;8283;48.504;13.734;2024-02-21T10:28:06;14.30;78.90
16347;DHT22;8283;48.504;13.734;2024-02-21T10:30:25;14.50;79.20
16347;DHT22;8283;48.504;13.734;2024-02-21T10:32:54;14.70;78.90
16347;DHT22;8283;48.504;13.734;2024-02-21T10:35:13;15.00;76.00
16347;DHT22;8283;48.504;13.734;2024-02-21T10:37:33;15.20;78.40
16347;DHT22;8283;48.504;13.734;2024-02-21T10:39:53;15.40;77.10
16347;DHT22;8283;48.504;13.734;2024-02-21T10:42:13;15.60;75.80
16347;DHT22;8283;48.504;13.734;2024-02-21T10:44:38;15.80;68.80
16347;DHT22;8283;48.504;13.734;2024-02-21T10:46:59;15.90;74.50
16347;DHT22;8283;48.504;13.734;2024-02-21T10:49:26;16.10;75.60
16347;DHT22;8283;48.504;13.734;2024-02-21T10:51:49;16.30;73.60
16347;DHT22;8283;48.504;13.734;2024-02-21T10:54:13;16.50;75.80
16347;DHT22;8283;48.504;13.734;2024-02-21T10:56:38;16.70;76.20
16347;DHT22;8283;48.504;13.734;2024-02-21T10:59:01;16.90;75.40
16347;DHT22;8283;48.504;13.734;2024-02-21T11:01:21;17.00;75.40
16347;DHT22;8283;48.504;13.734;2024-02-21T11:03:46;17.20;74.90
16347;DHT22;8283;48.504;13.734;2024-02-21T11:06:07;17.30;74.50
16347;DHT22;8283;48.504;13.734;2024-02-21T11:08:27;17.50;74.90
16347;DHT22;8283;48.504;13.734;2024-02-21T11:10:47;17.60;75.00
16347;DHT22;8283;48.504;13.734;2024-02-21T11:13:10;17.80;74.80
16347;DHT22;8283;48.504;13.734;2024-02-21T11:15:29;17.90;72.70
16347;DHT22;8283;48.504;13.734;2024-02-21T11:17:54;17.90;73.70
16347;DHT22;8283;48.504;13.734;2024-02-21T11:20:14;17.90;71.50
16347;DHT22;8283;48.504;13.734;2024-02-21T11:22:43;18.00;73.60
16347;DHT22;8283;48.504;13.734;2024-02-21T11:25:06;18.10;70.80
16347;DHT22;8283;48.504;13.734;2024-02-21T11:27:33;18.20;71.70
16347;DHT22;8283;48.504;13.734;2024-02-21T11:29:57;18.20;72.10
16347;DHT22;8283;48.504;13.734;2024-02-21T11:32:18;18.10;71.40
16347;DHT22;8283;48.504;13.734;2024-02-21T11:34:38;18.20;71.80
16347;DHT22;8283;48.504;13.734;2024-02-21T11:36:59;18.20;70.50
16347;DHT22;8283;48.504;13.734;2024-02-21T11:39:19;18.10;72.30
16347;DHT22;8283;48.504;13.734;2024-02-21T11:41:42;18.10;71.60
16347;DHT22;8283;48.504;13.734;2024-02-21T11:44:01;18.00;71.60
16347;DHT22;8283;48.504;13.734;2024-02-21T11:46:21;18.00;71.40
16347;DHT22;8283;48.504;13.734;2024-02-21T11:48:42;17.90;71.30
16347;DHT22;8283;48.504;13.734;2024-02-21T11:51:03;17.90;71.00
16347;DHT22;8283;48.504;13.734;2024-02-21T11:53:24;17.90;71.00
16347;DHT22;8283;48.504;13.734;2024-02-21T11:55:46;18.30;69.00
16347;DHT22;8283;48.504;13.734;2024-02-21T11:58:05;18.00;69.30
16347;DHT22;8283;48.504;13.734;2024-02-21T12:00:25;18.00;72.00
16347;DHT22;8283;48.504;13.734;2024-02-21T12:02:45;18.10;71.30
16347;DHT22;8283;48.504;13.734;2024-02-21T12:05:05;18.20;71.40
16347;DHT22;8283;48.504;13.734;2024-02-21T12:07:25;18.20;70.80
16347;DHT22;8283;48.504;13.734;2024-02-21T12:09:44;18.30;70.60
16347;DHT22;8283;48.504;13.734;2024-02-21T12:12:05;18.40;70.30
16347;DHT22;8283;48.504;13.734;2024-02-21T12:14:25;18.50;69.90
16347;DHT22;8283;48.504;13.734;2024-02-21T12:16:45;18.50;69.70
16347;DHT22;8283;48.504;13.734;2024-02-21T12:19:07;19.30;70.10
16347;DHT22;8283;48.504;13.734;2024-02-21T12:21:33;18.50;69.10
16347;DHT22;8283;48.504;13.734;2024-02-21T12:23:56;18.50;67.80
16347;DHT22;8283;48.504;13.734;2024-02-21T12:26:16;18.50;67.80
16347;DHT22;8283;48.504;13.734;2024-02-21T12:28:35;18.50;68.50
16347;DHT22;8283;48.504;13.734;2024-02-21T12:30:55;18.40;68.30
16347;DHT22;8283;48.504;13.734;2024-02-21T12:33:14;18.50;68.50
16347;DHT22;8283;48.504;13.734;2024-02-21T12:35:34;18.50;68.50
16347;DHT22;8283;48.504;13.734;2024-02-21T12:37:53;19.00;69.00
16347;DHT22;8283;48.504;13.734;2024-02-21T12:40:13;18.70;68.70
16347;DHT22;8283;48.504;13.734;2024-02-21T12:42:33;18.80;68.60
16347;DHT22;8283;48.504;13.734;2024-02-21T12:44:53;18.90;68.10
16347;DHT22;8283;48.504;13.734;2024-02-21T12:47:12;18.90;67.80
16347;DHT22;8283;48.504;13.734;2024-02-21T12:49:31;18.70;67.30
16347;DHT22;8283;48.504;13.734;2024-02-21T12:51:51;19.00;67.20
16347;DHT22;8283;48.504;13.734;2024-02-21T12:54:11;19.00;66.90
16347;DHT22;8283;48.504;13.734;2024-02-21T12:56:30;19.10;67.10
16347;DHT22;8283;48.504;13.734;2024-02-21T12:58:50;19.10;66.70
16347;DHT22;8283;48.504;13.734;2024-02-21T13:01:10;19.60;66.40
16347;DHT22;8283;48.504;13.734;2024-02-21T13:03:29;19.10;66.20
16347;DHT22;8283;48.504;13.734;2024-02-21T13:05:49;19.00;65.60
16347;DHT22;8283;48.504;13.734;2024-02-21T13:08:09;19.00;65.30
16347;DHT22;8283;48.504;13.734;2024-02-21T13:10:28;18.90;65.40
16347;DHT22;8283;48.504;13.734;2024-02-21T13:12:48;18.90;65.00
16347;DHT22;8283;48.504;13.734;2024-02-21T13:15:08;18.90;65.20
16347;DHT22;8283;48.504;13.734;2024-02-21T13:17:29;18.90;65.30
16347;DHT22;8283;48.504;13.734;2024-02-21T13:19:50;18.80;65.20
16347;DHT22;8283;48.504;13.734;2024-02-21T13:22:09;18.80;64.80
16347;DHT22;8283;48.504;13.734;2024-02-21T13:24:30;18.70;64.50
16347;DHT22;8283;48.504;13.734;2024-02-21T13:26:53;18.70;64.40
16347;DHT22;8283;48.504;13.734;2024-02-21T13:29:13;18.60;64.60
16347;DHT22;8283;48.504;13.734;2024-02-21T13:31:32;18.60;64.40
16347;DHT22;8283;48.504;13.734;2024-02-21T13:33:51;18.60;64.30
16347;DHT22;8283;48.504;13.734;2024-02-21T13:36:11;18.60;64.50
16347;DHT22;8283;48.504;13.734;2024-02-21T13:38:30;18.60;64.60
16347;DHT22;8283;48.504;13.734;2024-02-21T13:40:50;18.70;64.70
16347;DHT22;8283;48.504;13.734;2024-02-21T13:43:10;18.70;64.70
16347;DHT22;8283;48.504;13.734;2024-02-21T13:45:29;18.70;64.50
16347;DHT22;8283;48.504;13.734;2024-02-21T13:47:49;18.70;64.60
16347;DHT22;8283;48.504;13.734;2024-02-21T13:50:09;18.70;64.60
16347;DHT22;8283;48.504;13.734;2024-02-21T13:52:29;18.70;64.40
16347;DHT22;8283;48.504;13.734;2024-02-21T13:54:49;18.70;64.50
16347;DHT22;8283;48.504;13.734;2024-02-21T13:57:08;18.70;64.40
16347;DHT22;8283;48.504;13.734;2024-02-21T13:59:28;18.70;64.30
16347;DHT22;8283;48.504;13.734;2024-02-21T14:01:47;18.70;64.90
16347;DHT22;8283;48.504;13.734;2024-02-21T14:04:06;18.70;64.10
16347;DHT22;8283;48.504;13.734;2024-02-21T14:06:26;18.80;64.20
16347;DHT22;8283;48.504;13.734;2024-02-21T14:08:45;18.80;64.30
16347;DHT22;8283;48.504;13.734;2024-02-21T14:11:08;18.70;64.20
16347;DHT22;8283;48.504;13.734;2024-02-21T14:13:27;18.70;64.10
16347;DHT22;8283;48.504;13.734;2024-02-21T14:15:47;18.70;64.30
16347;DHT22;8283;48.504;13.734;2024-02-21T14:18:08;18.60;64.20
16347;DHT22;8283;48.504;13.734;2024-02-21T14:20:28;18.60;64.20
16347;DHT22;8283;48.504;13.734;2024-02-21T14:22:49;18.70;64.40
16347;DHT22;8283;48.504;13.734;2024-02-21T14:25:09;18.70;62.60
16347;DHT22;8283;48.504;13.734;2024-02-21T14:27:28;18.60;64.40
16347;DHT22;8283;48.504;13.734;2024-02-21T14:29:47;18.60;64.10
16347;DHT22;8283;48.504;13.734;2024-02-21T14:32:07;18.50;63.80
16347;DHT22;8283;48.504;13.734;2024-02-21T14:34:29;18.50;63.70
16347;DHT22;8283;48.504;13.734;2024-02-21T14:36:52;18.40;63.40
16347;DHT22;8283;48.504;13.734;2024-02-21T14:39:12;18.60;63.50
16347;DHT22;8283;48.504;13.734;2024-02-21T14:41:31;18.10;63.10
16347;DHT22;8283;48.504;13.734;2024-02-21T14:43:51;18.00;63.30
16347;DHT22;8283;48.504;13.734;2024-02-21T14:46:12;17.70;63.10
16347;DHT22;8283;48.504;13.734;2024-02-21T14:48:32;17.60;62.70
16347;DHT22;8283;48.504;13.734;2024-02-21T14:50:51;17.50;62.70